Latest Coastal Weather Observations for Cocos Island

IDW60701

Issued at 9:15 pm WST Saturday 26 July 2014 (issued every 10 minutes, with the page automatically refreshed every 10 minutes)

About coastal observations | Map of coastal stations | Coastal observations for WA | Marine services | Other Formats
Station Details ID: 200284 Name: COCOS ISLAND AIRPORT Lat: -12.19 Lon: 96.83 Height: 3.0 m
Data from the previous 72 hours. | See also: Recent months at Cocos Island
Date/Time
WST
Temp

°C
Wind Pressure Rain
since 9am
mm
Weather Cloud Vis
km
Sea
Height
m
Swell
Dir
 
Speed
knots
Gust
knots
hPa Trend Height
m
Period
s
Dir
26/09:00pm 25.7 ESE 12 16 1015.8 - 0.0 - Partly cloudy 10 - - - -
26/08:30pm 25.6 ESE 14 20 1015.4 - 0.0 - Partly cloudy - - - - -
26/08:00pm 25.8 ESE 12 16 1015.2 - 0.0 - Cloudy - - - - -
26/07:30pm 25.7 ESE 13 17 1014.9 - 0.0 - Partly cloudy - - - - -
26/07:00pm 26.0 SE 13 17 1014.8 - 0.0 - Partly cloudy - - - - -
26/06:30pm 25.9 SE 11 15 1014.7 - 0.0 - Partly cloudy - - - - -
26/06:00pm 25.9 SSE 10 15 1014.7 - 0.0 - Partly cloudy 10 - - - -
26/05:30pm 25.6 SE 12 15 1014.6 - 0.0 - Mostly clear 10 - - - -
26/05:00pm 25.6 ESE 15 20 1014.6 - 0.0 Distant precip. Mostly cloudy 18 - - - -
26/04:30pm 26.0 SE 12 16 1014.5 - 0.0 - Partly cloudy 10 - - - -
26/04:00pm 26.0 ESE 14 19 1014.5 - 0.0 - Partly cloudy 10 - - - -
26/03:30pm 26.4 SE 11 15 1014.6 - 0.0 - Partly cloudy 10 - - - -
26/03:00pm 26.6 ESE 13 19 1014.8 - 0.0 - Partly cloudy 10 - - - -
26/02:30pm 27.1 SE 14 18 1015.1 - 0.0 - Mostly clear 10 - - - -
26/02:00pm 27.1 SE 14 18 1015.3 - 0.0 Fine Mostly cloudy 20 - - - -
26/01:30pm 26.9 SE 15 20 1015.4 - 0.0 - Partly cloudy 10 - - - -
26/01:00pm 27.3 ESE 14 18 1015.8 - 0.0 - Partly cloudy 10 - - - -
26/12:30pm 26.4 ESE 14 17 1016.2 - 0.0 - Partly cloudy 10 - - - -
26/12:00pm 26.8 ESE 14 18 1016.4 - 0.0 - Partly cloudy 10 - - - -
26/11:30am 26.5 SE 14 18 1016.3 - 0.0 - Mostly clear 10 - - - -
26/11:00am 26.2 ESE 14 19 1016.2 - 0.0 Fine Partly cloudy 20 - - - -
26/10:30am 26.3 SE 13 16 1016.1 - 0.0 - Mostly clear 10 - - - -
26/10:00am 26.2 SE 14 18 1015.7 - 0.0 - Mostly clear 10 - - - -
26/09:30am 25.7 SE 14 17 1015.4 - 0.0 - Mostly clear 10 - - - -
26/09:00am 25.4 SE 13 18 1015.0 - 0.0 - Mostly clear 10 - - - -
26/08:30am 25.3 ESE 13 16 1014.6 - 0.0 - Mostly clear 10 - - - -
26/08:00am 25.1 SE 13 18 1014.1 - 0.0 Fine Mostly clear 20 - - - -
26/07:30am 25.1 SE 13 17 1013.9 - 0.0 - Mostly clear 10 - - - -
26/07:00am 25.0 SE 12 15 1013.8 - 0.0 - Mostly clear 10 - - - -
26/06:30am 25.2 SE 13 17 1013.7 - 0.0 - Partly cloudy - - - - -
26/06:00am 25.0 SE 11 14 1013.6 - 0.0 - Partly cloudy - - - - -
26/05:30am 25.1 ESE 11 14 1013.5 - 0.0 - Partly cloudy - - - - -
26/05:00am 25.1 SE 11 15 1013.4 - 0.0 - Mostly clear - - - - -
26/04:30am 25.0 SE 10 14 1013.5 - 0.0 - - - - - - -
26/04:00am 25.0 SE 11 14 1013.6 - 0.0 - - - - - - -
26/03:30am 25.1 ESE 10 13 1013.9 - 0.0 - - - - - - -
26/03:00am 25.0 SE 10 14 1014.4 - 0.0 - Partly cloudy - - - - -
26/02:30am 25.0 SE 10 14 1014.7 - 0.0 - Partly cloudy - - - - -
26/02:00am 24.9 SE 10 13 1014.9 - 0.0 - Mostly clear - - - - -
26/01:30am 25.1 ESE 10 12 1015.2 - 0.0 - Partly cloudy - - - - -
26/01:00am 25.2 SE 11 14 1015.3 - 0.0 - Partly cloudy - - - - -
26/12:30am 25.3 SE 11 15 1015.3 - 0.0 - Partly cloudy - - - - -
26/12:00am 25.3 SE 11 15 1015.5 - 0.0 - - - - - - -
 
Date/Time
WST
Temp

°C
Wind Pressure Rain
since 9am
mm
Weather Cloud Vis
km
Sea
Height
m
Swell
Dir
 
Speed
knots
Gust
knots
hPa Trend Height
m
Period
s
Dir
25/11:30pm 25.3 SE 11 15 1015.6 - 0.0 - Partly cloudy - - - - -
25/11:00pm 25.5 SE 13 15 1015.6 - 0.0 - Partly cloudy - - - - -
25/10:30pm 25.7 SE 11 16 1015.6 - 0.0 - Partly cloudy - - - - -
25/10:00pm 25.7 SE 12 16 1015.5 - 0.0 - Partly cloudy - - - - -
25/09:30pm 25.7 SE 12 15 1015.2 - 0.0 - Partly cloudy - - - - -
25/09:00pm 25.7 SE 12 15 1014.9 - 0.0 - Partly cloudy - - - - -
25/08:30pm 25.8 SE 12 16 1014.4 - 0.0 - Partly cloudy - - - - -
25/08:00pm 25.9 ESE 12 16 1014.1 - 0.0 - Mostly clear - - - - -
25/07:30pm 25.9 ESE 13 16 1013.7 - 0.0 - - - - - - -
25/07:00pm 26.0 ESE 12 16 1013.3 - 0.0 - Partly cloudy - - - - -
25/06:30pm 26.3 ESE 12 16 1013.1 - 0.0 - Partly cloudy - - - - -
25/06:00pm 26.6 SE 13 18 1012.6 - 0.0 - Mostly clear 10 - - - -
25/05:30pm 26.6 ESE 14 18 1012.4 - 0.0 - Mostly clear 10 - - - -
25/05:00pm 26.9 ESE 14 18 1012.3 - 0.0 Fine Partly cloudy 25 - - - -
25/04:30pm 27.3 ESE 15 19 1012.2 - 0.0 - Mostly clear 10 - - - -
25/04:00pm 27.5 ESE 14 18 1012.5 - 0.0 - Partly cloudy 10 - - - -
25/03:30pm 27.4 SE 15 19 1012.6 - 0.0 - Partly cloudy 10 - - - -
25/03:00pm 27.1 ESE 13 17 1013.0 - 0.0 - Partly cloudy 10 - - - -
25/02:30pm 26.8 ESE 14 18 1013.4 - 0.0 - Partly cloudy 10 - - - -
25/02:00pm 26.0 ESE 14 18 1013.7 - 0.0 Showers Mostly cloudy 20 - - - -
25/01:30pm 27.6 SE 14 19 1013.8 - 0.0 - Partly cloudy 10 - - - -
25/01:00pm 27.8 ESE 14 19 1013.8 - 0.0 - Partly cloudy 10 - - - -
25/12:30pm 27.2 ESE 14 19 1014.0 - 0.0 - Partly cloudy 10 - - - -
25/12:00pm 27.1 ESE 15 20 1014.2 - 0.0 - Mostly clear 10 - - - -
25/11:30am 26.9 ESE 15 19 1014.4 - 0.0 - Mostly clear 10 - - - -
25/11:00am 26.7 ESE 15 19 1014.7 - 0.0 Fine Mostly clear 25 - - - -
25/10:30am 26.4 ESE 15 19 1014.7 - 0.0 - Mostly clear 10 - - - -
25/10:00am 26.4 ESE 13 16 1014.5 - 0.0 - Mostly clear 10 - - - -
25/09:30am 26.1 ESE 12 15 1014.4 - 0.0 - Mostly clear 10 - - - -
25/09:00am 25.4 ESE 11 15 1014.1 - 0.0 - Mostly clear 10 - - - -
25/08:30am 25.4 ESE 12 16 1013.9 - 0.0 - Partly cloudy 10 - - - -
25/08:00am 25.0 ESE 11 14 1013.8 - 0.0 Fine Partly cloudy 20 - - - -
25/07:30am 25.2 ESE 11 14 1013.5 - 0.0 - Mostly clear 10 - - - -
25/07:00am 25.2 ESE 12 15 1013.3 - 0.0 - Mostly clear 10 - - - -
25/06:30am 25.3 ESE 12 15 1013.4 - 0.0 - - 10 - - - -
25/06:00am 25.2 ESE 11 16 1013.3 - 0.0 - Partly cloudy 10 - - - -
25/05:30am 25.1 ESE 11 13 1013.3 - 0.0 - - 10 - - - -
25/05:00am 25.1 ESE 12 15 1013.3 - 0.0 - Mostly cloudy 10 - - - -
25/04:30am 25.3 ESE 10 13 1013.4 - 0.0 - Partly cloudy 10 - - - -
25/04:00am 25.2 E 10 13 1013.5 - 0.0 - Partly cloudy 10 - - - -
25/03:30am 25.2 ESE 12 16 1013.5 - 0.0 - - 10 - - - -
25/03:00am 25.2 ESE 12 15 1013.7 - 0.0 - - 10 - - - -
25/02:30am 25.3 ESE 12 16 1014.0 - 0.0 - - 10 - - - -
25/02:00am 25.3 ESE 13 18 1014.2 - 0.0 - - 10 - - - -
25/01:30am 25.2 ESE 13 17 1014.4 - 0.0 - - 10 - - - -
25/01:00am 25.1 ESE 13 18 1014.6 - 0.0 - Partly cloudy 10 - - - -
25/12:30am 25.1 E 12 16 1014.7 - 0.0 - - 10 - - - -
25/12:00am 25.1 E 13 16 1014.9 - 0.0 - Partly cloudy 10 - - - -
 
Date/Time
WST
Temp

°C
Wind Pressure Rain
since 9am
mm
Weather Cloud Vis
km
Sea
Height
m
Swell
Dir
 
Speed
knots
Gust
knots
hPa Trend Height
m
Period
s
Dir
24/11:30pm 25.2 E 12 16 1014.9 - 0.0 - - 10 - - - -
24/11:00pm 25.3 E 14 19 1014.7 - 0.0 - Mostly clear 10 - - - -
24/10:30pm 25.3 ESE 12 17 1014.5 - 0.0 - Partly cloudy 10 - - - -
24/10:00pm 25.2 ESE 13 18 1014.3 - 0.0 - Partly cloudy 10 - - - -
24/09:30pm 25.4 E 15 19 1014.0 - 0.0 - Partly cloudy 10 - - - -
24/09:00pm 25.4 ESE 16 20 1013.5 - 0.0 - Partly cloudy 10 - - - -
24/08:30pm 25.6 ESE 15 21 1013.2 - 0.0 - Partly cloudy 10 - - - -
24/08:00pm 25.9 ESE 17 22 1012.7 - 0.0 - Cloudy 10 - - - -
24/07:30pm 25.9 ESE 16 22 1012.5 - 0.0 - - 10 - - - -
24/07:00pm 26.1 ESE 16 21 1012.4 - 0.0 - Partly cloudy - - - - -
24/06:30pm 26.4 ESE 17 21 1012.3 - 0.0 - Partly cloudy - - - - -
24/06:00pm 26.5 ESE 16 21 1012.1 - 0.0 - Mostly clear 10 - - - -
24/05:30pm 26.7 ESE 16 21 1011.9 - 0.0 - Mostly clear 10 - - - -
24/05:00pm 26.8 ESE 17 23 1011.7 - 0.0 Fine Mostly clear 25 - - - -
24/04:30pm 26.8 ESE 17 23 1011.6 - 0.0 - Partly cloudy 10 - - - -
24/04:00pm 27.0 ESE 18 23 1011.8 - 0.0 - Mostly clear 10 - - - -
24/03:30pm 27.6 ESE 17 22 1012.1 - 0.0 - Mostly clear 10 - - - -
24/03:00pm 27.4 ESE 17 23 1012.5 - 0.0 - Mostly clear 10 - - - -
24/02:30pm 27.5 ESE 17 22 1012.8 - 0.0 - Mostly clear 10 - - - -
24/02:00pm 27.4 ESE 18 23 1013.4 - 0.0 Fine Mostly clear 25 - - - -
24/01:30pm 27.4 ESE 17 24 1013.9 - 0.0 - Mostly clear 10 - - - -
24/01:00pm 27.5 ESE 16 21 1014.3 - 0.0 - Mostly clear 10 - - - -
24/12:30pm 27.3 ESE 17 23 1014.5 - 0.0 - - 10 - - - -
24/12:00pm 27.0 ESE 17 24 1014.9 - 0.0 - Mostly clear 10 - - - -
24/11:30am 26.7 ESE 18 22 1015.0 - 0.0 - Mostly clear 10 - - - -
24/11:00am 26.6 ESE 16 22 1015.2 - 0.0 Fine Mostly clear 23 - - - -
24/10:30am 26.0 ESE 17 22 1015.2 - 0.0 - Mostly clear 10 - - - -
24/10:00am 26.1 ESE 18 23 1015.1 - 0.0 - Mostly clear 10 - - - -
24/09:30am 25.7 ESE 17 24 1014.8 - 0.0 - Mostly clear 10 - - - -
24/09:00am 25.6 ESE 16 22 1014.4 - 0.0 - Mostly clear 10 - - - -
24/08:30am 25.3 ESE 17 23 1014.0 - 0.0 - Mostly clear 10 - - - -
24/08:00am 25.2 ESE 19 25 1013.6 - 0.0 Fine Partly cloudy 18 - - - -
24/07:30am 25.2 ESE 19 24 1013.5 - 0.0 - Mostly clear 10 - - - -
24/07:00am 25.2 ESE 17 23 1013.3 - 0.0 - Mostly clear 10 - - - -
24/06:30am 25.3 ESE 19 24 1013.1 - 0.0 - Partly cloudy 10 - - - -
24/06:00am 25.1 ESE 18 25 1013.0 - 0.0 - Partly cloudy 10 - - - -
24/05:30am 25.2 ESE 17 23 1013.0 - 0.0 - Partly cloudy 10 - - - -
24/05:00am 25.0 ESE 16 23 1013.1 - 0.0 - Partly cloudy 10 - - - -
24/04:30am 24.8 ESE 17 24 1013.3 - 0.0 - Partly cloudy 10 - - - -
24/04:20am 25.0 ESE 18 28 1013.2 - 0.0 - Partly cloudy 10 - - - -
24/04:00am 25.3 ESE 20 24 1013.1 - 0.0 - Partly cloudy 10 - - - -
24/03:30am 25.3 ESE 20 25 1013.4 - 0.0 - Partly cloudy 10 - - - -
24/03:00am 25.0 ESE 18 25 1013.7 - 0.0 - - 10 - - - -
24/02:30am 25.3 ESE 19 25 1013.9 - 0.0 - Partly cloudy 10 - - - -
24/02:00am 25.3 ESE 20 27 1014.2 - 0.0 - Partly cloudy 10 - - - -
24/01:30am 25.3 ESE 19 25 1014.4 - 0.0 - Partly cloudy 10 - - - -
24/01:00am 25.2 ESE 20 27 1014.7 - 0.0 - Partly cloudy 10 - - - -
24/12:30am 25.3 ESE 18 23 1014.8 - 0.0 - Partly cloudy 10 - - - -
24/12:00am 25.3 ESE 20 25 1015.0 - 0.0 - Partly cloudy 10 - - - -
 
Date/Time
WST
Temp

°C
Wind Pressure Rain
since 9am
mm
Weather Cloud Vis
km
Sea
Height
m
Swell
Dir
 
Speed
knots
Gust
knots
hPa Trend Height
m
Period
s
Dir
23/11:30pm 25.3 ESE 19 25 1015.1 - 0.0 - Partly cloudy 10 - - - -
23/11:00pm 25.4 ESE 19 25 1015.1 - 0.0 - Partly cloudy 10 - - - -

Other Formats:

Comma delimited format used in spreadsheet applications
http://www.bom.gov.au/fwo/IDW60701/IDW60701.96996.axf

JavaScript Object Notation format (JSON) in row-major order
http://www.bom.gov.au/fwo/IDW60701/IDW60701.96996.json